createdAt,value
2022-12-29T00:01:30.709Z,16.99
2022-12-29T00:04:18.650Z,16.89
2022-12-29T00:07:02.100Z,16.90
2022-12-29T00:09:44.392Z,16.85
2022-12-29T00:13:05.046Z,16.88
2022-12-29T00:15:41.988Z,16.83
2022-12-29T00:18:16.531Z,16.82
2022-12-29T00:21:35.722Z,16.81
2022-12-29T00:24:28.936Z,16.72
2022-12-29T00:27:21.303Z,16.62
2022-12-29T00:30:17.165Z,16.67
2022-12-29T00:33:21.787Z,16.60
2022-12-29T00:36:07.523Z,16.61
2022-12-29T00:39:03.693Z,16.54
2022-12-29T00:41:53.532Z,16.53
2022-12-29T00:44:27.090Z,16.51
2022-12-29T00:47:14.495Z,16.51
2022-12-29T00:49:54.313Z,16.48
2022-12-29T00:52:44.048Z,16.44
2022-12-29T00:55:15.338Z,16.36
2022-12-29T00:57:47.500Z,16.34
2022-12-29T01:03:13.305Z,16.24
2022-12-29T01:11:17.591Z,16.13
2022-12-29T01:13:52.227Z,16.07
2022-12-29T01:16:36.971Z,16.12
2022-12-29T01:22:23.945Z,16.10
2022-12-29T01:24:59.782Z,16.09
2022-12-29T01:27:34.022Z,16.07
2022-12-29T01:30:05.288Z,16.01
2022-12-29T01:32:56.069Z,16.01
2022-12-29T01:38:46.464Z,16.01
2022-12-29T01:41:23.036Z,15.98
2022-12-29T01:43:58.605Z,15.94
2022-12-29T01:46:41.335Z,15.91
2022-12-29T01:49:12.460Z,15.94
2022-12-29T01:51:52.585Z,15.95
2022-12-29T01:54:30.248Z,15.88
2022-12-29T01:57:07.704Z,15.85
2022-12-29T01:59:41.852Z,15.91
2022-12-29T02:02:17.312Z,15.85
2022-12-29T02:04:51.265Z,15.85
2022-12-29T02:07:23.979Z,15.88
2022-12-29T02:09:57.351Z,15.84
2022-12-29T02:12:30.964Z,15.78
2022-12-29T02:15:10.322Z,15.83
2022-12-29T02:17:47.777Z,15.79
2022-12-29T02:23:37.868Z,15.79
2022-12-29T02:26:27.147Z,15.74
2022-12-29T02:29:00.340Z,15.76
2022-12-29T02:31:49.853Z,15.64
2022-12-29T02:34:43.448Z,15.69
2022-12-29T02:37:40.229Z,15.63
2022-12-29T02:40:32.989Z,15.56
2022-12-29T02:43:31.508Z,15.58
2022-12-29T02:49:05.439Z,15.45
2022-12-29T02:51:48.738Z,15.42
2022-12-29T02:54:41.047Z,15.38
2022-12-29T02:57:26.953Z,15.39
2022-12-29T03:00:56.262Z,15.30
2022-12-29T03:03:30.368Z,15.27
2022-12-29T03:06:18.504Z,15.37
2022-12-29T03:12:26.274Z,15.40
2022-12-29T03:15:41.044Z,15.24
2022-12-29T03:18:20.880Z,15.30
2022-12-29T03:21:22.756Z,15.25
2022-12-29T03:23:55.754Z,15.29
2022-12-29T03:26:38.106Z,15.20
2022-12-29T03:29:12.528Z,15.27
2022-12-29T03:31:42.077Z,15.24
2022-12-29T03:34:11.940Z,15.25
2022-12-29T03:36:49.681Z,15.21
2022-12-29T03:39:22.217Z,15.16
2022-12-29T03:41:58.618Z,15.15
2022-12-29T03:44:34.797Z,15.13
2022-12-29T03:47:10.076Z,15.12
2022-12-29T03:49:52.604Z,15.11
2022-12-29T03:52:29.677Z,15.15
2022-12-29T04:00:21.556Z,15.18
2022-12-29T04:03:00.174Z,15.17
2022-12-29T04:05:33.080Z,15.18
2022-12-29T04:08:01.716Z,15.14
2022-12-29T04:10:40.872Z,15.18
2022-12-29T04:13:19.764Z,15.15
2022-12-29T04:15:55.614Z,15.11
2022-12-29T04:18:34.224Z,15.05
2022-12-29T04:21:10.449Z,15.05
2022-12-29T04:23:54.704Z,15.08
2022-12-29T04:26:31.581Z,14.99
2022-12-29T04:29:16.798Z,14.97
2022-12-29T04:32:13.542Z,14.99
2022-12-29T04:34:52.086Z,15.08
2022-12-29T04:37:38.868Z,14.89
2022-12-29T04:40:25.081Z,14.97
2022-12-29T04:42:57.578Z,14.90
2022-12-29T04:45:37.400Z,14.91
2022-12-29T04:48:28.325Z,15.00
2022-12-29T04:51:25.175Z,14.95
2022-12-29T04:54:10.191Z,14.95
2022-12-29T04:56:52.251Z,14.98
2022-12-29T04:59:24.448Z,14.90
2022-12-29T05:02:11.925Z,14.92
2022-12-29T05:04:48.411Z,14.88
2022-12-29T05:07:24.188Z,14.89
2022-12-29T05:10:04.365Z,14.91
2022-12-29T05:12:47.548Z,14.89
2022-12-29T05:15:23.521Z,14.75
2022-12-29T05:17:50.975Z,14.77
2022-12-29T05:20:22.827Z,14.79
2022-12-29T05:22:57.034Z,14.84
2022-12-29T05:25:33.551Z,14.84
2022-12-29T05:28:21.913Z,14.85
2022-12-29T05:30:52.082Z,14.77
2022-12-29T05:33:23.590Z,14.78
2022-12-29T05:35:57.430Z,14.76
2022-12-29T05:38:27.432Z,14.79
2022-12-29T05:41:00.465Z,14.74
2022-12-29T05:44:08.330Z,14.81
2022-12-29T05:47:06.411Z,14.80
2022-12-29T05:50:04.889Z,14.73
2022-12-29T05:52:57.478Z,14.78
2022-12-29T05:55:54.727Z,14.78
2022-12-29T05:58:29.405Z,14.74
2022-12-29T06:01:01.496Z,14.75
2022-12-29T06:03:30.996Z,14.75
2022-12-29T06:06:05.253Z,14.77
2022-12-29T06:08:46.035Z,14.69
2022-12-29T06:11:16.111Z,14.76
2022-12-29T06:13:55.361Z,14.69
2022-12-29T06:16:34.748Z,14.53
2022-12-29T06:19:13.385Z,14.65
2022-12-29T06:21:49.244Z,14.71
2022-12-29T06:24:20.593Z,14.73
2022-12-29T06:26:55.111Z,14.73
2022-12-29T06:29:29.026Z,14.74
2022-12-29T06:32:07.169Z,14.74
2022-12-29T06:34:48.958Z,14.78
2022-12-29T06:37:31.819Z,14.80
2022-12-29T06:40:06.592Z,14.81
2022-12-29T06:42:53.702Z,14.75
2022-12-29T06:45:45.284Z,14.73
2022-12-29T06:48:23.903Z,14.75
2022-12-29T06:50:51.397Z,14.76
2022-12-29T06:53:18.877Z,14.76
2022-12-29T06:55:46.145Z,14.73
2022-12-29T06:58:22.979Z,14.66
2022-12-29T07:00:59.374Z,14.74
2022-12-29T07:03:46.998Z,14.74
2022-12-29T07:06:30.316Z,14.78
2022-12-29T07:09:01.832Z,14.81
2022-12-29T07:11:30.246Z,14.78
2022-12-29T07:14:04.497Z,14.75
2022-12-29T07:16:35.747Z,14.82
2022-12-29T07:19:05.626Z,14.82
2022-12-29T07:21:32.779Z,14.86
2022-12-29T07:23:59.896Z,14.86
2022-12-29T07:26:30.340Z,14.88
2022-12-29T07:29:04.481Z,14.93
2022-12-29T07:31:31.908Z,14.95
2022-12-29T07:33:58.999Z,14.98
2022-12-29T07:36:32.406Z,14.91
2022-12-29T07:39:01.369Z,14.97
2022-12-29T07:41:28.420Z,15.09
2022-12-29T07:43:55.633Z,15.13
2022-12-29T07:46:53.680Z,15.11
2022-12-29T07:49:23.936Z,15.18
2022-12-29T07:51:51.096Z,15.22
2022-12-29T07:54:21.118Z,15.27
2022-12-29T07:56:50.842Z,15.29
2022-12-29T07:59:20.761Z,15.26
2022-12-29T08:01:49.401Z,15.35
2022-12-29T08:04:17.044Z,15.31
2022-12-29T08:06:46.709Z,15.17
2022-12-29T08:09:21.677Z,15.31
2022-12-29T08:11:50.118Z,15.27
2022-12-29T08:14:17.282Z,15.36
2022-12-29T08:16:46.562Z,15.34
2022-12-29T08:19:13.696Z,15.44
2022-12-29T08:21:41.364Z,15.50
2022-12-29T08:24:18.684Z,15.49
2022-12-29T08:26:48.179Z,15.56
2022-12-29T08:29:18.596Z,15.63
2022-12-29T08:31:46.107Z,15.69
2022-12-29T08:34:13.225Z,15.77
2022-12-29T08:36:40.765Z,15.81
2022-12-29T08:39:07.901Z,15.86
2022-12-29T08:41:34.947Z,15.89
2022-12-29T08:44:02.035Z,15.93
2022-12-29T08:46:29.264Z,16.04
2022-12-29T08:48:58.891Z,16.14
2022-12-29T08:51:25.986Z,16.14
2022-12-29T08:53:56.033Z,16.16
2022-12-29T08:56:24.991Z,16.19
2022-12-29T08:58:56.125Z,16.36
2022-12-29T09:01:24.592Z,16.47
2022-12-29T09:06:41.592Z,16.62
2022-12-29T09:09:08.853Z,16.75
2022-12-29T09:11:35.887Z,16.87
2022-12-29T09:14:02.896Z,16.99
2022-12-29T09:16:29.997Z,17.08
2022-12-29T09:18:57.040Z,17.31
2022-12-29T09:21:24.056Z,17.50
2022-12-29T09:23:53.794Z,17.65
2022-12-29T09:26:23.605Z,17.82
2022-12-29T09:28:53.712Z,17.89
2022-12-29T09:31:21.391Z,17.95
2022-12-29T09:33:48.525Z,17.97
2022-12-29T09:36:16.863Z,17.88
2022-12-29T09:38:48.585Z,17.80
2022-12-29T09:41:19.359Z,17.86
2022-12-29T09:44:08.778Z,17.90
2022-12-29T09:46:40.830Z,17.84
2022-12-29T09:49:26.690Z,17.94
2022-12-29T09:52:01.070Z,18.06
2022-12-29T09:54:28.107Z,18.14
2022-12-29T09:56:56.820Z,18.24
2022-12-29T09:59:28.175Z,18.35
2022-12-29T10:01:59.890Z,18.48
2022-12-29T10:04:28.832Z,18.92
2022-12-29T10:10:05.145Z,19.03
2022-12-29T10:12:35.232Z,19.28
2022-12-29T10:15:21.151Z,19.43
2022-12-29T10:17:48.300Z,19.74
2022-12-29T10:20:27.722Z,19.91
2022-12-29T10:22:54.765Z,20.15
2022-12-29T10:25:31.105Z,20.49
2022-12-29T10:28:03.391Z,20.59
2022-12-29T10:30:31.734Z,20.26
2022-12-29T10:33:02.855Z,20.57
2022-12-29T10:35:40.301Z,21.05
2022-12-29T10:38:19.771Z,21.97
2022-12-29T10:40:50.447Z,22.37
2022-12-29T10:43:26.898Z,23.21
2022-12-29T10:46:00.212Z,23.77
2022-12-29T10:48:35.646Z,24.08
2022-12-29T10:51:04.416Z,24.52
2022-12-29T10:53:43.615Z,24.55
2022-12-29T10:56:23.300Z,25.19
2022-12-29T10:58:51.377Z,25.46
2022-12-29T11:01:19.722Z,25.77
2022-12-29T11:04:06.256Z,26.14
2022-12-29T11:06:35.189Z,26.83
2022-12-29T11:09:16.180Z,27.07
2022-12-29T11:11:44.585Z,27.58
2022-12-29T11:14:14.843Z,27.87
2022-12-29T11:16:42.945Z,28.46
2022-12-29T11:19:30.220Z,28.52
2022-12-29T11:22:12.911Z,29.17
2022-12-29T11:24:45.972Z,28.90
2022-12-29T11:27:17.456Z,29.46
2022-12-29T11:29:44.919Z,30.05
2022-12-29T11:32:13.326Z,30.41
2022-12-29T11:34:40.386Z,30.40
2022-12-29T11:37:17.077Z,29.79
2022-12-29T11:39:46.952Z,29.40
2022-12-29T11:42:25.004Z,27.93
2022-12-29T11:44:55.308Z,27.95
2022-12-29T11:47:33.300Z,27.57
2022-12-29T11:50:02.327Z,27.04
2022-12-29T11:52:34.329Z,27.96
2022-12-29T11:55:02.581Z,28.79
2022-12-29T11:57:30.163Z,29.70
2022-12-29T11:59:57.718Z,29.66
2022-12-29T12:02:45.747Z,30.10
2022-12-29T12:05:17.168Z,30.42
2022-12-29T12:07:46.979Z,30.39
2022-12-29T12:10:20.857Z,30.55
2022-12-29T12:13:20.415Z,30.26
2022-12-29T12:15:59.148Z,30.39
2022-12-29T12:18:32.679Z,30.87
2022-12-29T12:21:19.993Z,31.26
2022-12-29T12:24:05.315Z,31.57
2022-12-29T12:29:52.239Z,31.14
2022-12-29T12:32:26.432Z,29.85
2022-12-29T12:34:53.544Z,29.92
2022-12-29T12:37:35.400Z,30.36
2022-12-29T12:40:17.323Z,29.60
2022-12-29T12:42:44.395Z,29.47
2022-12-29T12:45:35.776Z,30.06
2022-12-29T12:48:18.750Z,28.46
2022-12-29T12:50:51.734Z,28.95
2022-12-29T12:53:30.554Z,27.30
2022-12-29T12:56:17.986Z,27.58
2022-12-29T12:58:55.963Z,28.19
2022-12-29T13:01:42.901Z,28.79
2022-12-29T13:04:31.879Z,29.02
2022-12-29T13:07:23.185Z,29.54
2022-12-29T13:10:02.842Z,30.31
2022-12-29T13:12:37.609Z,30.69
2022-12-29T13:15:32.801Z,30.60
2022-12-29T13:18:20.307Z,30.48
2022-12-29T13:20:51.116Z,30.56
2022-12-29T13:23:33.777Z,30.87
2022-12-29T13:26:00.996Z,30.06
2022-12-29T13:28:33.233Z,30.35
2022-12-29T13:31:06.626Z,28.35
2022-12-29T13:33:36.647Z,28.92
2022-12-29T13:36:15.578Z,27.62
2022-12-29T13:38:48.679Z,27.47
2022-12-29T13:41:29.044Z,26.03
2022-12-29T13:43:57.169Z,25.92
2022-12-29T13:46:29.759Z,25.94
2022-12-29T13:49:02.929Z,26.71
2022-12-29T13:51:30.493Z,26.59
2022-12-29T13:54:26.195Z,26.21
2022-12-29T13:57:03.965Z,26.17
2022-12-29T14:00:03.018Z,25.69
2022-12-29T14:02:38.948Z,25.56
2022-12-29T14:05:37.336Z,25.10
2022-12-29T14:08:17.091Z,24.98
2022-12-29T14:10:51.513Z,25.20
2022-12-29T14:13:20.490Z,25.08
2022-12-29T14:15:53.121Z,25.06
2022-12-29T14:18:22.652Z,24.96
2022-12-29T14:20:58.634Z,24.53
2022-12-29T14:23:37.025Z,24.65
2022-12-29T14:26:07.931Z,23.81
2022-12-29T14:28:38.282Z,22.94
2022-12-29T14:31:28.042Z,22.99
2022-12-29T14:34:07.119Z,23.12
2022-12-29T14:36:34.288Z,23.13
2022-12-29T14:39:01.650Z,23.21
2022-12-29T14:41:38.323Z,23.09
2022-12-29T14:44:08.382Z,22.89
2022-12-29T14:46:50.954Z,23.16
2022-12-29T14:49:35.710Z,23.07
2022-12-29T14:52:24.251Z,23.16
2022-12-29T14:55:06.088Z,22.76
2022-12-29T14:57:41.212Z,23.10
2022-12-29T15:00:21.384Z,23.11
2022-12-29T15:02:53.417Z,22.98
2022-12-29T15:05:53.313Z,22.63
2022-12-29T15:08:26.148Z,22.80
2022-12-29T15:11:02.490Z,22.72
2022-12-29T15:13:40.923Z,22.71
2022-12-29T15:16:22.415Z,22.62
2022-12-29T15:18:49.526Z,22.44
2022-12-29T15:21:17.390Z,22.47
2022-12-29T15:23:50.040Z,22.16
2022-12-29T15:26:25.416Z,22.19
2022-12-29T15:28:53.600Z,22.01
2022-12-29T15:31:29.408Z,21.96
2022-12-29T15:34:09.250Z,21.78
2022-12-29T15:36:40.738Z,21.89
2022-12-29T15:39:36.873Z,21.66
2022-12-29T15:42:08.224Z,21.65
2022-12-29T15:44:42.931Z,21.50
2022-12-29T15:47:23.908Z,21.28
2022-12-29T15:49:59.438Z,21.49
2022-12-29T15:52:32.373Z,21.69
2022-12-29T15:54:59.838Z,21.40
2022-12-29T15:57:31.336Z,21.59
2022-12-29T16:00:26.902Z,21.40
2022-12-29T16:02:55.250Z,21.81
2022-12-29T16:05:24.775Z,21.80
2022-12-29T16:07:58.990Z,21.86
2022-12-29T16:10:34.876Z,21.56
2022-12-29T16:13:24.793Z,21.39
2022-12-29T16:15:53.379Z,21.35
2022-12-29T16:18:31.174Z,21.41
2022-12-29T16:20:58.665Z,21.37
2022-12-29T16:23:27.435Z,21.43
2022-12-29T16:26:00.950Z,21.45
2022-12-29T16:28:51.339Z,21.22
2022-12-29T16:31:39.749Z,21.36
2022-12-29T16:34:33.283Z,20.82
2022-12-29T16:37:00.838Z,20.76
2022-12-29T16:39:35.425Z,20.33
2022-12-29T16:45:34.314Z,20.81
2022-12-29T16:48:10.272Z,20.71
2022-12-29T16:50:44.440Z,20.91
2022-12-29T16:53:23.195Z,20.97
2022-12-29T16:55:56.414Z,20.86
2022-12-29T16:58:32.886Z,20.75
2022-12-29T17:01:20.310Z,20.20
2022-12-29T17:04:11.363Z,20.53
2022-12-29T17:06:44.691Z,20.50
2022-12-29T17:09:20.724Z,20.84
2022-12-29T17:12:00.471Z,20.92
2022-12-29T17:14:37.431Z,20.92
2022-12-29T17:17:14.234Z,21.00
2022-12-29T17:19:44.384Z,20.94
2022-12-29T17:22:31.964Z,20.98
2022-12-29T17:25:05.985Z,20.65
2022-12-29T17:27:47.647Z,20.73
2022-12-29T17:30:21.548Z,20.46
2022-12-29T17:33:09.100Z,20.37
2022-12-29T17:35:37.450Z,20.29
2022-12-29T17:38:16.711Z,20.43
2022-12-29T17:40:55.574Z,20.09
2022-12-29T17:43:26.570Z,20.33
2022-12-29T17:45:57.619Z,20.47
2022-12-29T17:48:27.908Z,20.47
2022-12-29T17:51:13.925Z,20.39
2022-12-29T17:53:52.264Z,20.41
2022-12-29T17:56:24.218Z,20.38
2022-12-29T17:59:00.413Z,20.37
2022-12-29T18:01:45.413Z,20.25
2022-12-29T18:04:15.233Z,20.31
2022-12-29T18:06:45.338Z,20.37
2022-12-29T18:12:24.825Z,20.44
2022-12-29T18:15:00.202Z,20.33
2022-12-29T18:17:35.514Z,20.41
2022-12-29T18:20:08.802Z,20.30
2022-12-29T18:22:43.536Z,20.18
2022-12-29T18:28:22.383Z,20.17
2022-12-29T18:30:49.745Z,19.70
2022-12-29T18:33:24.112Z,19.58
2022-12-29T18:36:06.879Z,19.76
2022-12-29T18:38:41.921Z,19.95
2022-12-29T18:41:23.793Z,20.05
2022-12-29T18:43:54.099Z,19.95
2022-12-29T18:46:30.954Z,20.08
2022-12-29T18:49:10.755Z,20.10
2022-12-29T18:54:43.173Z,20.09
2022-12-29T18:57:16.841Z,20.14
2022-12-29T18:59:45.052Z,20.18
2022-12-29T19:02:44.255Z,20.18
2022-12-29T19:05:26.118Z,20.23
2022-12-29T19:07:58.003Z,20.13
2022-12-29T19:10:41.543Z,20.25
2022-12-29T19:13:24.539Z,20.24
2022-12-29T19:16:00.946Z,20.21
2022-12-29T19:18:53.271Z,20.12
2022-12-29T19:21:31.058Z,20.06
2022-12-29T19:24:04.981Z,19.93
2022-12-29T19:26:52.358Z,19.86
2022-12-29T19:29:25.121Z,19.81
2022-12-29T19:31:57.739Z,19.72
2022-12-29T19:34:43.458Z,19.51
2022-12-29T19:37:13.265Z,19.62
2022-12-29T19:39:49.082Z,19.09
2022-12-29T19:42:17.129Z,19.35
2022-12-29T19:44:52.010Z,19.35
2022-12-29T19:47:34.063Z,19.33
2022-12-29T19:50:04.539Z,19.42
2022-12-29T19:52:36.902Z,19.52
2022-12-29T19:55:04.444Z,19.38
2022-12-29T19:57:41.269Z,19.35
2022-12-29T20:00:16.664Z,19.44
2022-12-29T20:02:49.650Z,19.44
2022-12-29T20:05:20.014Z,19.41
2022-12-29T20:07:49.695Z,19.36
2022-12-29T20:10:17.210Z,19.48
2022-12-29T20:13:03.271Z,19.56
2022-12-29T20:15:32.935Z,19.64
2022-12-29T20:18:15.501Z,19.65
2022-12-29T20:20:48.169Z,19.65
2022-12-29T20:23:20.456Z,19.65
2022-12-29T20:25:54.123Z,19.68
2022-12-29T20:28:24.538Z,19.76
2022-12-29T20:31:17.345Z,19.65
2022-12-29T20:33:48.549Z,19.50
2022-12-29T20:36:19.203Z,19.56
2022-12-29T20:38:56.480Z,19.49
2022-12-29T20:41:34.974Z,19.52
2022-12-29T20:44:06.730Z,19.51
2022-12-29T20:46:43.546Z,19.53
2022-12-29T20:49:17.245Z,19.62
2022-12-29T20:54:39.728Z,19.57
2022-12-29T20:57:13.507Z,19.59
2022-12-29T20:59:51.893Z,19.66
2022-12-29T21:02:26.206Z,19.60
2022-12-29T21:07:58.925Z,19.67
2022-12-29T21:10:29.214Z,19.70
2022-12-29T21:13:02.188Z,19.64
2022-12-29T21:15:37.164Z,19.68
2022-12-29T21:18:04.302Z,19.68
2022-12-29T21:20:34.310Z,19.72
2022-12-29T21:23:03.828Z,19.74
2022-12-29T21:25:37.546Z,19.53
2022-12-29T21:28:12.487Z,19.62
2022-12-29T21:33:29.124Z,19.52
2022-12-29T21:36:03.813Z,19.66
2022-12-29T21:38:43.147Z,19.71
2022-12-29T21:41:20.208Z,19.65
2022-12-29T21:44:08.093Z,19.71
2022-12-29T21:46:44.615Z,19.75
2022-12-29T21:49:17.562Z,19.74
2022-12-29T21:51:58.608Z,19.45
2022-12-29T21:54:51.945Z,19.63
2022-12-29T21:57:45.313Z,19.72
2022-12-29T22:00:33.946Z,19.78
2022-12-29T22:03:23.817Z,19.76
2022-12-29T22:06:32.899Z,19.86
2022-12-29T22:09:26.802Z,19.85
2022-12-29T22:12:26.511Z,19.86
2022-12-29T22:15:02.385Z,19.84
2022-12-29T22:20:15.039Z,19.66
2022-12-29T22:22:53.743Z,19.61
2022-12-29T22:28:09.812Z,19.52
2022-12-29T22:33:34.728Z,19.68
2022-12-29T22:36:20.995Z,19.55
2022-12-29T22:38:50.375Z,19.65
2022-12-29T22:41:24.373Z,19.73
2022-12-29T22:44:02.230Z,19.70
2022-12-29T22:46:34.907Z,19.70
2022-12-29T22:49:07.820Z,19.72
2022-12-29T22:51:34.980Z,19.60
2022-12-29T22:54:16.274Z,19.67
2022-12-29T22:56:46.710Z,19.51
2022-12-29T22:59:20.657Z,19.57
2022-12-29T23:02:17.849Z,19.46
2022-12-29T23:05:13.547Z,19.53
2022-12-29T23:07:50.924Z,19.51
2022-12-29T23:10:27.913Z,19.38
2022-12-29T23:12:57.241Z,19.32
2022-12-29T23:15:33.626Z,19.23
2022-12-29T23:18:11.143Z,19.09
2022-12-29T23:20:49.633Z,19.22
2022-12-29T23:23:49.132Z,19.08
2022-12-29T23:26:21.237Z,19.09
2022-12-29T23:28:48.517Z,19.06
2022-12-29T23:31:20.732Z,19.11
2022-12-29T23:33:51.898Z,19.04
2022-12-29T23:39:18.614Z,19.05
2022-12-29T23:41:46.643Z,19.03
2022-12-29T23:44:13.806Z,19.00
2022-12-29T23:46:41.316Z,19.02
2022-12-29T23:49:14.025Z,19.10
2022-12-29T23:51:55.077Z,19.10
2022-12-29T23:54:26.980Z,19.11
2022-12-29T23:56:54.249Z,19.08
